createdAt,value
2023-01-30T00:00:24.983Z,7.10
2023-01-30T00:01:29.852Z,7.10
2023-01-30T00:02:31.671Z,7.20
2023-01-30T00:03:34.441Z,7.20
2023-01-30T00:04:36.277Z,7.20
2023-01-30T00:05:38.017Z,7.20
2023-01-30T00:06:42.636Z,7.20
2023-01-30T00:07:44.463Z,7.20
2023-01-30T00:08:46.787Z,7.20
2023-01-30T00:09:48.613Z,7.20
2023-01-30T00:10:50.570Z,7.20
2023-01-30T00:11:52.395Z,7.20
2023-01-30T00:12:54.156Z,7.20
2023-01-30T00:13:57.010Z,7.20
2023-01-30T00:14:58.750Z,7.20
2023-01-30T00:16:00.801Z,7.30
2023-01-30T00:17:02.801Z,7.30
2023-01-30T00:18:05.054Z,7.30
2023-01-30T00:19:06.791Z,7.30
2023-01-30T00:20:09.409Z,7.30
2023-01-30T00:21:14.716Z,7.30
2023-01-30T00:22:16.626Z,7.30
2023-01-30T00:23:21.307Z,7.30
2023-01-30T00:24:23.373Z,7.30
2023-01-30T00:25:27.097Z,7.30
2023-01-30T00:26:28.929Z,7.30
2023-01-30T00:27:30.727Z,7.30
2023-01-30T00:28:32.527Z,7.30
2023-01-30T00:29:34.199Z,7.40
2023-01-30T00:30:37.340Z,7.30
2023-01-30T00:31:39.173Z,7.40
2023-01-30T00:32:40.895Z,7.40
2023-01-30T00:33:42.657Z,7.40
2023-01-30T00:34:45.082Z,7.40
2023-01-30T00:35:48.301Z,7.40
2023-01-30T00:37:02.535Z,7.40
2023-01-30T00:38:10.395Z,7.40
2023-01-30T00:39:12.445Z,7.40
2023-01-30T00:40:14.387Z,7.40
2023-01-30T00:41:18.920Z,7.50
2023-01-30T00:42:39.590Z,7.50
2023-01-30T00:44:00.395Z,7.50
2023-01-30T00:45:21.155Z,7.50
2023-01-30T00:46:59.779Z,7.50
2023-01-30T00:48:02.631Z,7.50
2023-01-30T00:49:04.446Z,7.50
2023-01-30T00:50:07.657Z,7.50
2023-01-30T00:51:12.086Z,7.50
2023-01-30T00:52:15.086Z,7.50
2023-01-30T00:53:17.392Z,7.60
2023-01-30T00:54:19.333Z,7.60
2023-01-30T00:55:23.857Z,7.60
2023-01-30T00:56:25.605Z,7.60
2023-01-30T00:57:27.382Z,7.60
2023-01-30T00:58:29.145Z,7.60
2023-01-30T00:59:31.024Z,7.60
2023-01-30T01:00:33.411Z,7.60
2023-01-30T01:01:35.397Z,7.70
2023-01-30T01:02:37.294Z,7.70
2023-01-30T01:03:39.289Z,7.70
2023-01-30T01:04:44.189Z,7.70
2023-01-30T01:05:46.771Z,7.70
2023-01-30T01:06:49.089Z,7.70
2023-01-30T01:07:50.932Z,7.80
2023-01-30T01:08:52.834Z,7.80
2023-01-30T01:09:55.946Z,7.80
2023-01-30T01:10:57.822Z,7.80
2023-01-30T01:12:00.547Z,7.80
2023-01-30T01:13:02.651Z,7.80
2023-01-30T01:14:05.914Z,7.90
2023-01-30T01:15:08.009Z,7.90
2023-01-30T01:16:09.828Z,7.90
2023-01-30T01:17:12.019Z,7.90
2023-01-30T01:18:13.941Z,7.90
2023-01-30T01:19:15.755Z,7.90
2023-01-30T01:20:18.503Z,7.90
2023-01-30T01:21:22.082Z,7.90
2023-01-30T01:22:23.885Z,7.90
2023-01-30T01:23:27.547Z,7.90
2023-01-30T01:24:30.336Z,7.90
2023-01-30T01:25:32.164Z,7.90
2023-01-30T01:26:35.342Z,7.90
2023-01-30T01:27:38.659Z,7.90
2023-01-30T01:28:41.831Z,7.90
2023-01-30T01:29:45.769Z,7.90
2023-01-30T01:30:47.666Z,7.90
2023-01-30T01:31:49.655Z,7.90
2023-01-30T01:32:51.475Z,7.90
2023-01-30T01:33:53.444Z,7.90
2023-01-30T01:34:55.528Z,7.90
2023-01-30T01:35:57.660Z,7.90
2023-01-30T01:36:59.439Z,7.90
2023-01-30T01:38:01.319Z,7.90
2023-01-30T01:39:04.003Z,7.90
2023-01-30T01:40:32.967Z,7.90
2023-01-30T01:41:34.787Z,7.90
2023-01-30T01:42:39.227Z,7.90
2023-01-30T01:44:04.074Z,7.90
2023-01-30T01:45:18.538Z,7.90
2023-01-30T01:46:27.981Z,7.90
2023-01-30T01:47:32.826Z,7.90
2023-01-30T01:48:40.187Z,7.90
2023-01-30T01:49:42.050Z,7.90
2023-01-30T01:50:53.515Z,7.90
2023-01-30T01:52:07.983Z,7.90
2023-01-30T01:53:12.990Z,7.90
2023-01-30T01:54:32.039Z,7.90
2023-01-30T01:55:35.081Z,7.90
2023-01-30T01:56:40.905Z,7.90
2023-01-30T01:57:55.145Z,7.90
2023-01-30T01:59:04.368Z,7.90
2023-01-30T02:00:24.250Z,7.80
2023-01-30T02:01:26.509Z,7.90
2023-01-30T02:02:28.687Z,7.80
2023-01-30T02:03:35.126Z,7.80
2023-01-30T02:04:59.283Z,7.80
2023-01-30T02:06:03.350Z,7.80
2023-01-30T02:07:05.319Z,7.80
2023-01-30T02:08:24.753Z,7.80
2023-01-30T02:09:26.952Z,7.80
2023-01-30T02:11:02.523Z,7.80
2023-01-30T02:12:06.208Z,7.80
2023-01-30T02:13:08.058Z,7.70
2023-01-30T02:14:13.499Z,7.70
2023-01-30T02:15:16.966Z,7.70
2023-01-30T02:16:18.927Z,7.70
2023-01-30T02:17:20.874Z,7.70
2023-01-30T02:18:23.005Z,7.70
2023-01-30T02:19:35.365Z,7.70
2023-01-30T02:21:11.490Z,7.70
2023-01-30T02:22:26.641Z,7.70
2023-01-30T02:23:43.244Z,7.70
2023-01-30T02:25:11.187Z,7.70
2023-01-30T02:26:35.330Z,7.70
2023-01-30T02:28:04.631Z,7.60
2023-01-30T02:29:31.061Z,7.60
2023-01-30T02:30:44.680Z,7.60
2023-01-30T02:32:00.234Z,7.60
2023-01-30T02:33:41.392Z,7.60
2023-01-30T02:34:55.497Z,7.60
2023-01-30T02:36:00.065Z,7.50
2023-01-30T02:37:15.633Z,7.50
2023-01-30T02:38:32.267Z,7.50
2023-01-30T02:39:44.860Z,7.50
2023-01-30T02:41:13.983Z,7.50
2023-01-30T02:42:32.341Z,7.50
2023-01-30T02:44:02.417Z,7.50
2023-01-30T02:45:28.115Z,7.40
2023-01-30T02:46:57.134Z,7.50
2023-01-30T02:48:05.347Z,7.40
2023-01-30T02:49:18.992Z,7.40
2023-01-30T02:50:25.437Z,7.40
2023-01-30T02:51:37.146Z,7.40
2023-01-30T02:52:40.389Z,7.40
2023-01-30T02:53:42.483Z,7.40
2023-01-30T02:54:44.462Z,7.40
2023-01-30T02:55:46.401Z,7.40
2023-01-30T02:56:54.166Z,7.40
2023-01-30T02:57:58.250Z,7.40
2023-01-30T02:59:08.542Z,7.40
2023-01-30T03:00:11.423Z,7.40
2023-01-30T03:01:45.746Z,7.40
2023-01-30T03:03:12.166Z,7.40
2023-01-30T03:04:39.011Z,7.40
2023-01-30T03:05:49.635Z,7.40
2023-01-30T03:07:11.039Z,7.40
2023-01-30T03:08:32.931Z,7.40
2023-01-30T03:09:48.089Z,7.40
2023-01-30T03:11:08.656Z,7.40
2023-01-30T03:12:33.224Z,7.40
2023-01-30T03:13:53.011Z,7.40
2023-01-30T03:15:32.650Z,7.40
2023-01-30T03:16:38.568Z,7.40
2023-01-30T03:17:45.324Z,7.40
2023-01-30T03:18:50.749Z,7.40
2023-01-30T03:19:54.351Z,7.40
2023-01-30T03:20:56.750Z,7.40
2023-01-30T03:21:58.638Z,7.40
2023-01-30T03:23:00.639Z,7.40
2023-01-30T03:24:02.365Z,7.40
2023-01-30T03:25:05.263Z,7.40
2023-01-30T03:26:17.360Z,7.40
2023-01-30T03:27:20.022Z,7.40
2023-01-30T03:28:23.189Z,7.40
2023-01-30T03:29:25.203Z,7.40
2023-01-30T03:30:27.390Z,7.40
2023-01-30T03:31:40.769Z,7.40
2023-01-30T03:32:42.928Z,7.40
2023-01-30T03:33:44.741Z,7.40
2023-01-30T03:34:47.423Z,7.30
2023-01-30T03:35:51.060Z,7.40
2023-01-30T03:36:53.062Z,7.40
2023-01-30T03:37:55.817Z,7.40
2023-01-30T03:38:57.821Z,7.40
2023-01-30T03:39:59.667Z,7.40
2023-01-30T03:41:03.020Z,7.40
2023-01-30T03:42:04.910Z,7.40
2023-01-30T03:43:07.827Z,7.40
2023-01-30T03:44:11.194Z,7.40
2023-01-30T03:45:17.113Z,7.40
2023-01-30T03:46:21.439Z,7.40
2023-01-30T03:47:23.732Z,7.40
2023-01-30T03:48:27.116Z,7.40
2023-01-30T03:49:30.136Z,7.40
2023-01-30T03:50:32.710Z,7.40
2023-01-30T03:51:35.678Z,7.40
2023-01-30T03:52:38.121Z,7.40
2023-01-30T03:53:44.313Z,7.40
2023-01-30T03:54:47.294Z,7.40
2023-01-30T03:55:49.940Z,7.40
2023-01-30T03:56:56.800Z,7.40
2023-01-30T03:57:59.201Z,7.50
2023-01-30T03:59:04.201Z,7.50
2023-01-30T04:00:14.770Z,7.50
2023-01-30T04:01:23.332Z,7.50
2023-01-30T04:02:26.322Z,7.50
2023-01-30T04:03:28.980Z,7.50
2023-01-30T04:04:33.925Z,7.50
2023-01-30T04:05:36.814Z,7.50
2023-01-30T04:06:41.263Z,7.50
2023-01-30T04:07:43.115Z,7.50
2023-01-30T04:08:45.436Z,7.50
2023-01-30T04:09:58.063Z,7.50
2023-01-30T04:11:00.327Z,7.50
2023-01-30T04:12:02.157Z,7.50
2023-01-30T04:13:08.936Z,7.50
2023-01-30T04:14:10.803Z,7.50
2023-01-30T04:15:23.788Z,7.60
2023-01-30T04:16:35.101Z,7.60
2023-01-30T04:18:12.465Z,7.60
2023-01-30T04:19:23.783Z,7.50
2023-01-30T04:20:25.666Z,7.60
2023-01-30T04:21:30.030Z,7.60
2023-01-30T04:22:31.967Z,7.60
2023-01-30T04:23:33.805Z,7.60
2023-01-30T04:24:35.615Z,7.60
2023-01-30T04:25:38.069Z,7.60
2023-01-30T04:26:42.548Z,7.60
2023-01-30T04:27:44.871Z,7.60
2023-01-30T04:28:50.679Z,7.60
2023-01-30T04:29:53.089Z,7.60
2023-01-30T04:30:54.909Z,7.70
2023-01-30T04:32:13.827Z,7.70
2023-01-30T04:33:15.661Z,7.70
2023-01-30T04:34:17.536Z,7.70
2023-01-30T04:35:19.964Z,7.70
2023-01-30T04:36:22.031Z,7.70
2023-01-30T04:37:24.678Z,7.70
2023-01-30T04:38:27.685Z,7.70
2023-01-30T04:39:29.519Z,7.70
2023-01-30T04:40:32.269Z,7.70
2023-01-30T04:41:34.460Z,7.70
2023-01-30T04:42:37.107Z,7.70
2023-01-30T04:44:07.687Z,7.70
2023-01-30T04:45:35.485Z,7.70
2023-01-30T04:46:37.403Z,7.70
2023-01-30T04:47:39.927Z,7.70
2023-01-30T04:48:42.053Z,7.70
2023-01-30T04:49:44.580Z,7.70
2023-01-30T04:50:50.123Z,7.70
2023-01-30T04:51:52.119Z,7.70
2023-01-30T04:52:54.612Z,7.70
2023-01-30T04:53:56.445Z,7.70
2023-01-30T04:54:58.231Z,7.70
2023-01-30T04:56:00.124Z,7.70
2023-01-30T04:57:01.927Z,7.70
2023-01-30T04:58:04.200Z,7.70
2023-01-30T04:59:06.051Z,7.70
2023-01-30T05:00:13.525Z,7.70
2023-01-30T05:01:41.727Z,7.60
2023-01-30T05:02:43.621Z,7.70
2023-01-30T05:03:45.400Z,7.60
2023-01-30T05:04:49.862Z,7.60
2023-01-30T05:05:51.628Z,7.60
2023-01-30T05:06:53.517Z,7.60
2023-01-30T05:07:55.312Z,7.60
2023-01-30T05:08:57.715Z,7.60
2023-01-30T05:09:59.429Z,7.50
2023-01-30T05:11:01.268Z,7.60
2023-01-30T05:12:03.031Z,7.50
2023-01-30T05:13:06.298Z,7.50
2023-01-30T05:14:08.113Z,7.50
2023-01-30T05:15:11.026Z,7.60
2023-01-30T05:16:14.984Z,7.60
2023-01-30T05:17:16.808Z,7.60
2023-01-30T05:18:18.602Z,7.60
2023-01-30T05:19:20.577Z,7.60
2023-01-30T05:20:22.510Z,7.60
2023-01-30T05:21:27.843Z,7.60
2023-01-30T05:22:29.715Z,7.60
2023-01-30T05:23:31.456Z,7.60
2023-01-30T05:24:33.250Z,7.60
2023-01-30T05:25:35.008Z,7.60
2023-01-30T05:26:36.917Z,7.60
2023-01-30T05:27:38.820Z,7.50
2023-01-30T05:28:41.197Z,7.60
2023-01-30T05:29:43.013Z,7.60
2023-01-30T05:30:46.392Z,7.60
2023-01-30T05:31:49.137Z,7.60
2023-01-30T05:32:51.906Z,7.60
2023-01-30T05:33:53.829Z,7.60
2023-01-30T05:34:55.687Z,7.60
2023-01-30T05:35:58.071Z,7.60
2023-01-30T05:36:59.838Z,7.60
2023-01-30T05:38:02.223Z,7.60
2023-01-30T05:39:04.478Z,7.60
2023-01-30T05:40:07.306Z,7.60
2023-01-30T05:41:14.700Z,7.50
2023-01-30T05:42:16.526Z,7.50
2023-01-30T05:43:18.238Z,7.50
2023-01-30T05:44:20.017Z,7.50
2023-01-30T05:45:21.833Z,7.50
2023-01-30T05:46:24.227Z,7.50
2023-01-30T05:47:26.113Z,7.50
2023-01-30T05:48:28.840Z,7.40
2023-01-30T05:49:30.564Z,7.40
2023-01-30T05:50:32.409Z,7.50
2023-01-30T05:51:34.287Z,7.50
2023-01-30T05:52:35.996Z,7.40
2023-01-30T05:53:38.538Z,7.40
2023-01-30T05:54:40.836Z,7.40
2023-01-30T05:55:43.833Z,7.40
2023-01-30T05:56:51.004Z,7.40
2023-01-30T05:57:52.734Z,7.30
2023-01-30T05:58:56.184Z,7.30
2023-01-30T05:59:57.959Z,7.30
2023-01-30T06:01:06.914Z,7.30
2023-01-30T06:02:10.508Z,7.30
2023-01-30T06:03:13.031Z,7.30
2023-01-30T06:04:14.765Z,7.20
2023-01-30T06:05:17.061Z,7.20
2023-01-30T06:06:19.745Z,7.20
2023-01-30T06:07:21.723Z,7.20
2023-01-30T06:08:24.005Z,7.20
2023-01-30T06:09:27.736Z,7.10
2023-01-30T06:10:29.582Z,7.10
2023-01-30T06:11:31.399Z,7.10
2023-01-30T06:12:33.186Z,7.10
2023-01-30T06:13:35.997Z,7.10
2023-01-30T06:14:37.936Z,7.00
2023-01-30T06:15:40.022Z,7.00
2023-01-30T06:16:41.817Z,7.00
2023-01-30T06:17:43.842Z,7.00
2023-01-30T06:18:48.841Z,7.00
2023-01-30T06:19:50.772Z,6.90
2023-01-30T06:20:53.814Z,6.90
2023-01-30T06:21:57.025Z,6.90
2023-01-30T06:22:58.777Z,6.90
2023-01-30T06:24:00.549Z,6.90
2023-01-30T06:25:02.343Z,6.90
2023-01-30T06:26:06.244Z,6.80
2023-01-30T06:27:09.977Z,6.80
2023-01-30T06:28:12.493Z,6.80
2023-01-30T06:29:14.716Z,6.80
2023-01-30T06:30:16.664Z,6.70
2023-01-30T06:31:19.159Z,6.80
2023-01-30T06:32:21.285Z,6.70
2023-01-30T06:33:23.113Z,6.70
2023-01-30T06:34:25.013Z,6.70
2023-01-30T06:35:27.826Z,6.70
2023-01-30T06:36:29.864Z,6.60
2023-01-30T06:37:32.727Z,6.60
2023-01-30T06:38:34.745Z,6.60
2023-01-30T06:39:36.641Z,6.60
2023-01-30T06:40:39.221Z,6.60
2023-01-30T06:41:41.399Z,6.60
2023-01-30T06:42:47.175Z,6.60
2023-01-30T06:43:49.069Z,6.50
2023-01-30T06:44:50.841Z,6.50
2023-01-30T06:45:52.689Z,6.50
2023-01-30T06:46:54.770Z,6.50
2023-01-30T06:47:57.143Z,6.50
2023-01-30T06:48:59.029Z,6.50
2023-01-30T06:50:00.819Z,6.50
2023-01-30T06:51:02.831Z,6.40
2023-01-30T06:52:04.852Z,6.40
2023-01-30T06:53:08.757Z,6.40
2023-01-30T06:54:10.725Z,6.40
2023-01-30T06:55:15.621Z,6.40
2023-01-30T06:56:17.777Z,6.40
2023-01-30T06:57:19.621Z,6.40
2023-01-30T06:58:21.642Z,6.40
2023-01-30T06:59:23.576Z,6.40
2023-01-30T07:00:25.426Z,6.40
2023-01-30T07:01:28.931Z,6.40
2023-01-30T07:02:35.197Z,6.30
2023-01-30T07:03:37.191Z,6.40
2023-01-30T07:04:39.359Z,6.30
2023-01-30T07:05:42.918Z,6.30
2023-01-30T07:06:46.180Z,6.30
2023-01-30T07:07:48.106Z,6.30
2023-01-30T07:08:50.093Z,6.30
2023-01-30T07:10:07.039Z,6.30
2023-01-30T07:11:11.020Z,6.20
2023-01-30T07:12:12.778Z,6.30
2023-01-30T07:13:14.673Z,6.20
2023-01-30T07:14:16.496Z,6.20
2023-01-30T07:15:18.670Z,6.20
2023-01-30T07:16:20.786Z,6.20
2023-01-30T07:17:25.851Z,6.20
2023-01-30T07:18:27.781Z,6.20
2023-01-30T07:19:29.873Z,6.10
2023-01-30T07:20:31.888Z,6.10
2023-01-30T07:21:37.428Z,6.10
2023-01-30T07:22:39.526Z,6.10
2023-01-30T07:23:41.973Z,6.10
2023-01-30T07:24:43.872Z,6.10
2023-01-30T07:25:45.819Z,6.10
2023-01-30T07:26:51.253Z,6.10
2023-01-30T07:28:01.079Z,6.10
2023-01-30T07:29:03.035Z,6.10
2023-01-30T07:30:05.293Z,6.10
2023-01-30T07:31:07.119Z,6.10
2023-01-30T07:32:16.265Z,6.10
2023-01-30T07:33:18.411Z,6.10
2023-01-30T07:34:22.212Z,6.10
2023-01-30T07:35:26.496Z,6.10
2023-01-30T07:36:28.314Z,6.10
2023-01-30T07:37:30.063Z,6.10
2023-01-30T07:38:31.846Z,6.00
2023-01-30T07:39:33.837Z,6.00
2023-01-30T07:40:35.702Z,6.00
2023-01-30T07:41:37.551Z,6.00
2023-01-30T07:42:39.336Z,6.00
2023-01-30T07:43:41.072Z,6.00
2023-01-30T07:44:43.135Z,6.00
2023-01-30T07:45:46.998Z,6.00
2023-01-30T07:46:48.927Z,6.00
2023-01-30T07:47:50.747Z,6.00
2023-01-30T07:48:52.501Z,6.00
2023-01-30T07:49:54.355Z,6.00
2023-01-30T07:50:57.997Z,6.00
2023-01-30T07:51:59.841Z,6.00
2023-01-30T07:53:04.656Z,6.00
2023-01-30T07:54:08.312Z,6.00
2023-01-30T07:55:10.249Z,6.00
2023-01-30T07:56:18.369Z,6.10
2023-01-30T07:57:20.184Z,6.10
2023-01-30T07:58:22.552Z,6.10
2023-01-30T07:59:24.913Z,6.10
2023-01-30T08:00:27.332Z,6.10
2023-01-30T08:01:29.351Z,6.10
2023-01-30T08:02:31.261Z,6.10
2023-01-30T08:03:33.153Z,6.10
2023-01-30T08:04:35.033Z,6.10
2023-01-30T08:05:36.807Z,6.10
2023-01-30T08:06:39.750Z,6.10
2023-01-30T08:07:41.719Z,6.10
2023-01-30T08:08:44.295Z,6.20
2023-01-30T08:09:46.759Z,6.10
2023-01-30T08:10:51.301Z,6.20
2023-01-30T08:11:53.171Z,6.20
2023-01-30T08:12:55.139Z,6.20
2023-01-30T08:13:56.959Z,6.20
2023-01-30T08:14:58.773Z,6.20
2023-01-30T08:16:05.526Z,6.20
2023-01-30T08:17:07.523Z,6.20
2023-01-30T08:18:09.272Z,6.20
2023-01-30T08:19:11.098Z,6.30
2023-01-30T08:20:17.051Z,6.30
2023-01-30T08:21:19.588Z,6.30
2023-01-30T08:22:25.553Z,6.30
2023-01-30T08:23:31.683Z,6.30
2023-01-30T08:24:33.435Z,6.30
2023-01-30T08:25:36.122Z,6.30
2023-01-30T08:26:38.051Z,6.30
2023-01-30T08:27:39.970Z,6.30
2023-01-30T08:28:41.939Z,6.40
2023-01-30T08:29:44.786Z,6.40
2023-01-30T08:30:47.135Z,6.40
2023-01-30T08:31:50.544Z,6.40
2023-01-30T08:32:52.506Z,6.50
2023-01-30T08:33:54.322Z,6.50
2023-01-30T08:34:56.411Z,6.50
2023-01-30T08:35:58.117Z,6.60
2023-01-30T08:36:59.963Z,6.60
2023-01-30T08:38:03.428Z,6.60
2023-01-30T08:39:05.377Z,6.70
2023-01-30T08:40:08.905Z,6.70
2023-01-30T08:41:10.768Z,6.80
2023-01-30T08:42:12.695Z,6.80
2023-01-30T08:43:14.455Z,6.80
2023-01-30T08:44:16.302Z,6.80
2023-01-30T08:45:18.083Z,6.90
2023-01-30T08:46:22.017Z,6.90
2023-01-30T08:47:23.859Z,7.00
2023-01-30T08:48:25.663Z,7.00
2023-01-30T08:49:27.428Z,7.00
2023-01-30T08:50:29.568Z,7.10
2023-01-30T08:51:33.164Z,7.10
2023-01-30T08:52:35.060Z,7.10
2023-01-30T08:53:37.026Z,7.10
2023-01-30T08:54:38.883Z,7.20
2023-01-30T08:55:40.683Z,7.20
2023-01-30T08:56:42.381Z,7.20
2023-01-30T08:57:44.839Z,7.20
2023-01-30T08:58:46.695Z,7.20
2023-01-30T08:59:51.224Z,7.20
2023-01-30T09:00:53.119Z,7.20
2023-01-30T09:01:55.096Z,7.20
2023-01-30T09:02:57.929Z,7.30
2023-01-30T09:03:59.690Z,7.30
2023-01-30T09:05:01.612Z,7.30
2023-01-30T09:06:03.636Z,7.30
2023-01-30T09:07:05.463Z,7.30
2023-01-30T09:08:07.286Z,7.30
2023-01-30T09:09:09.254Z,7.30
2023-01-30T09:10:11.414Z,7.30
2023-01-30T09:11:13.868Z,7.30
2023-01-30T09:12:16.770Z,7.30
2023-01-30T09:13:18.548Z,7.30
2023-01-30T09:14:21.510Z,7.30
2023-01-30T09:15:23.779Z,7.30
2023-01-30T09:16:25.725Z,7.30
2023-01-30T09:17:27.499Z,7.30
2023-01-30T09:18:29.374Z,7.30
2023-01-30T09:19:31.307Z,7.30
2023-01-30T09:20:33.140Z,7.30
2023-01-30T09:21:35.002Z,7.30
2023-01-30T09:22:37.620Z,7.40
2023-01-30T09:23:39.951Z,7.40
2023-01-30T09:24:41.752Z,7.40
2023-01-30T09:25:49.589Z,7.40
2023-01-30T09:26:51.294Z,7.40
2023-01-30T09:27:53.264Z,7.40
2023-01-30T09:28:55.247Z,7.50
2023-01-30T09:29:57.524Z,7.50
2023-01-30T09:31:02.684Z,7.50
2023-01-30T09:32:04.757Z,7.50
2023-01-30T09:33:06.625Z,7.60
2023-01-30T09:34:08.393Z,7.60
2023-01-30T09:35:10.448Z,7.60
2023-01-30T09:36:12.267Z,7.70
2023-01-30T09:37:15.987Z,7.70
2023-01-30T09:38:18.616Z,7.70
2023-01-30T09:39:20.389Z,7.70
2023-01-30T09:40:26.578Z,7.70
2023-01-30T09:41:42.777Z,7.70
2023-01-30T09:43:02.665Z,7.80
2023-01-30T09:44:36.347Z,7.80
2023-01-30T09:46:08.352Z,7.80
2023-01-30T09:47:21.845Z,7.80
2023-01-30T09:48:54.739Z,7.80
2023-01-30T09:50:02.426Z,7.80
2023-01-30T09:51:16.353Z,7.80
2023-01-30T09:52:54.143Z,7.90
2023-01-30T09:53:55.898Z,7.90
2023-01-30T09:55:19.509Z,8.00
2023-01-30T09:56:21.520Z,8.00
2023-01-30T09:57:25.672Z,8.10
2023-01-30T09:58:48.423Z,8.10
2023-01-30T10:00:11.759Z,8.10
2023-01-30T10:01:27.148Z,8.10
2023-01-30T10:02:44.693Z,8.10
2023-01-30T10:04:25.090Z,8.10
2023-01-30T10:05:51.510Z,8.10
2023-01-30T10:07:15.792Z,8.10
2023-01-30T10:08:39.040Z,8.10
2023-01-30T10:10:01.679Z,8.00
2023-01-30T10:11:15.242Z,8.00
2023-01-30T10:12:23.564Z,8.00
2023-01-30T10:14:20.763Z,8.00
2023-01-30T10:15:32.080Z,8.00
2023-01-30T10:17:19.454Z,7.90
2023-01-30T10:18:44.682Z,7.90
2023-01-30T10:20:17.017Z,7.90
2023-01-30T10:22:01.554Z,7.90
2023-01-30T10:23:44.828Z,7.90
2023-01-30T10:24:59.695Z,7.90
2023-01-30T10:26:11.732Z,7.90
2023-01-30T10:27:16.809Z,7.90
2023-01-30T10:29:06.106Z,7.90
2023-01-30T10:30:15.952Z,8.00
2023-01-30T10:31:20.150Z,8.00
2023-01-30T10:32:28.944Z,8.00
2023-01-30T10:33:45.081Z,8.00
2023-01-30T10:34:54.122Z,8.00
2023-01-30T10:36:16.146Z,8.10
2023-01-30T10:37:46.376Z,8.10
2023-01-30T10:38:52.695Z,8.10
2023-01-30T10:40:20.430Z,8.20
2023-01-30T10:41:39.401Z,8.30
2023-01-30T10:42:47.061Z,8.30
2023-01-30T10:44:11.218Z,8.30
2023-01-30T10:45:17.304Z,8.40
2023-01-30T10:46:43.981Z,8.40
2023-01-30T10:47:59.699Z,8.40
2023-01-30T10:49:06.823Z,8.40
2023-01-30T10:50:30.811Z,8.40
2023-01-30T10:51:50.508Z,8.30
2023-01-30T10:53:23.081Z,8.30
2023-01-30T10:54:35.997Z,8.30
2023-01-30T10:55:47.115Z,8.30
2023-01-30T10:57:03.333Z,8.30
2023-01-30T10:58:32.095Z,8.30
2023-01-30T11:00:00.672Z,8.30
2023-01-30T11:01:19.771Z,8.30
2023-01-30T11:02:45.613Z,8.30
2023-01-30T11:03:53.865Z,8.30
2023-01-30T11:05:01.979Z,8.30
2023-01-30T11:06:16.606Z,8.30
2023-01-30T11:07:18.856Z,8.30
2023-01-30T11:08:23.114Z,8.30
2023-01-30T11:09:25.243Z,8.30
2023-01-30T11:10:28.139Z,8.30
2023-01-30T11:11:51.489Z,8.40
2023-01-30T11:13:00.439Z,8.40
2023-01-30T11:14:12.333Z,8.40
2023-01-30T11:15:14.379Z,8.40
2023-01-30T11:16:16.773Z,8.50
2023-01-30T11:17:20.550Z,8.50
2023-01-30T11:19:45.798Z,8.60
2023-01-30T11:21:03.403Z,8.60
2023-01-30T11:22:06.278Z,8.70
2023-01-30T11:23:23.317Z,8.80
2023-01-30T11:24:31.707Z,8.80
2023-01-30T11:25:56.678Z,8.90
2023-01-30T11:27:16.485Z,9.00
2023-01-30T11:28:19.649Z,9.00
2023-01-30T11:29:33.412Z,9.00
2023-01-30T11:30:40.181Z,9.00
2023-01-30T11:31:46.260Z,9.00
2023-01-30T11:32:50.754Z,9.00
2023-01-30T11:34:12.995Z,9.00
2023-01-30T11:35:14.798Z,9.00
2023-01-30T11:36:32.085Z,9.00
2023-01-30T11:37:38.999Z,9.00
2023-01-30T11:39:01.586Z,9.10
2023-01-30T11:40:19.487Z,9.10
2023-01-30T11:41:22.764Z,9.10
2023-01-30T11:42:31.847Z,9.10
2023-01-30T11:43:35.181Z,9.20
2023-01-30T11:44:40.283Z,9.20
2023-01-30T11:45:48.674Z,9.30
2023-01-30T11:46:50.477Z,9.30
2023-01-30T11:47:58.372Z,9.30
2023-01-30T11:49:44.973Z,9.30
2023-01-30T11:50:57.713Z,9.40
2023-01-30T11:52:00.333Z,9.40
2023-01-30T11:53:05.690Z,9.30
2023-01-30T11:54:18.191Z,9.30
2023-01-30T11:55:21.282Z,9.30
2023-01-30T11:56:33.494Z,9.30
2023-01-30T11:58:02.248Z,9.30
2023-01-30T11:59:31.587Z,9.20
2023-01-30T12:00:48.443Z,9.20
2023-01-30T12:01:50.543Z,9.20
2023-01-30T12:02:54.579Z,9.20
2023-01-30T12:03:58.591Z,9.20
2023-01-30T12:05:05.981Z,9.20
2023-01-30T12:06:07.738Z,9.20
2023-01-30T12:07:26.323Z,9.20
2023-01-30T12:08:43.587Z,9.20
2023-01-30T12:09:45.778Z,9.20
2023-01-30T12:10:54.024Z,9.30
2023-01-30T12:11:55.842Z,9.30
2023-01-30T12:13:03.628Z,9.40
2023-01-30T12:14:31.475Z,9.40
2023-01-30T12:15:34.646Z,9.40
2023-01-30T12:16:54.975Z,9.40
2023-01-30T12:18:20.887Z,9.40
2023-01-30T12:19:30.567Z,9.40
2023-01-30T12:20:55.850Z,9.40
2023-01-30T12:22:05.545Z,9.40
2023-01-30T12:23:36.849Z,9.40
2023-01-30T12:25:01.477Z,9.30
2023-01-30T12:26:12.870Z,9.30
2023-01-30T12:27:26.924Z,9.20
2023-01-30T12:28:48.294Z,9.20
2023-01-30T12:29:59.200Z,9.20
2023-01-30T12:31:22.802Z,9.20
2023-01-30T12:32:28.347Z,9.20
2023-01-30T12:33:34.743Z,9.20
2023-01-30T12:34:37.255Z,9.20
2023-01-30T12:36:02.123Z,9.20
2023-01-30T12:37:04.640Z,9.20
2023-01-30T12:38:15.004Z,9.20
2023-01-30T12:39:28.798Z,9.20
2023-01-30T12:40:51.882Z,9.20
2023-01-30T12:42:25.847Z,9.20
2023-01-30T12:43:49.099Z,9.20
2023-01-30T12:45:19.667Z,9.20
2023-01-30T12:46:42.228Z,9.20
2023-01-30T12:48:08.055Z,9.20
2023-01-30T12:49:25.436Z,9.30
2023-01-30T12:50:54.931Z,9.20
2023-01-30T12:52:16.898Z,9.30
2023-01-30T12:53:28.534Z,9.30
2023-01-30T12:54:48.709Z,9.40
2023-01-30T12:56:01.487Z,9.40
2023-01-30T12:57:29.251Z,9.40
2023-01-30T12:58:39.506Z,9.40
2023-01-30T12:59:49.390Z,9.40
2023-01-30T13:01:09.851Z,9.40
2023-01-30T13:02:27.006Z,9.40
2023-01-30T13:04:04.405Z,9.30
2023-01-30T13:05:24.575Z,9.30
2023-01-30T13:06:47.344Z,9.20
2023-01-30T13:08:06.511Z,9.20
2023-01-30T13:09:38.173Z,9.20
2023-01-30T13:11:06.895Z,9.10
2023-01-30T13:12:43.019Z,9.10
2023-01-30T13:13:59.721Z,9.10
2023-01-30T13:15:14.145Z,9.00
2023-01-30T13:16:28.697Z,9.00
2023-01-30T13:17:51.647Z,9.00
2023-01-30T13:19:03.206Z,9.00
2023-01-30T13:20:22.171Z,9.00
2023-01-30T13:21:25.911Z,9.00
2023-01-30T13:22:51.307Z,9.00
2023-01-30T13:24:23.668Z,9.00
2023-01-30T13:25:43.346Z,9.00
2023-01-30T13:26:47.178Z,9.00
2023-01-30T13:28:14.179Z,8.90
2023-01-30T13:29:27.003Z,8.90
2023-01-30T13:30:31.007Z,8.90
2023-01-30T13:31:38.807Z,8.90
2023-01-30T13:32:46.470Z,8.90
2023-01-30T13:33:51.800Z,8.80
2023-01-30T13:34:56.938Z,8.80
2023-01-30T13:36:19.039Z,8.80
2023-01-30T13:37:20.980Z,8.80
2023-01-30T13:38:28.944Z,8.80
2023-01-30T13:39:43.746Z,8.80
2023-01-30T13:40:48.587Z,8.80
2023-01-30T13:41:55.860Z,8.80
2023-01-30T13:43:07.345Z,8.80
2023-01-30T13:44:31.458Z,8.80
2023-01-30T13:45:36.016Z,8.80
2023-01-30T13:46:39.537Z,8.70
2023-01-30T13:47:52.370Z,8.80
2023-01-30T13:49:15.450Z,8.80
2023-01-30T13:50:44.038Z,8.80
2023-01-30T13:51:52.946Z,8.80
2023-01-30T13:53:06.874Z,8.80
2023-01-30T13:54:53.339Z,8.80
2023-01-30T13:56:40.737Z,8.80
2023-01-30T13:57:54.599Z,8.80
2023-01-30T13:59:00.995Z,8.80
2023-01-30T14:00:41.293Z,8.80
2023-01-30T14:02:03.752Z,8.80
2023-01-30T14:03:08.567Z,8.80
2023-01-30T14:04:46.860Z,8.80
2023-01-30T14:05:51.483Z,8.80
2023-01-30T14:06:53.301Z,8.80
2023-01-30T14:07:56.319Z,8.90
2023-01-30T14:09:01.318Z,8.90
2023-01-30T14:10:08.979Z,8.80
2023-01-30T14:11:34.066Z,8.90
2023-01-30T14:12:47.825Z,8.90
2023-01-30T14:13:53.727Z,8.90
2023-01-30T14:15:21.481Z,8.90
2023-01-30T14:16:24.314Z,8.90
2023-01-30T14:17:26.663Z,8.90
2023-01-30T14:18:33.756Z,8.90
2023-01-30T14:19:40.847Z,8.90
2023-01-30T14:20:50.681Z,8.90
2023-01-30T14:22:16.370Z,8.90
2023-01-30T14:23:35.107Z,8.90
2023-01-30T14:24:37.699Z,8.90
2023-01-30T14:25:51.160Z,8.90
2023-01-30T14:26:59.095Z,8.90
2023-01-30T14:28:00.803Z,8.90
2023-01-30T14:29:02.633Z,8.80
2023-01-30T14:30:37.338Z,8.80
2023-01-30T14:31:50.124Z,8.90
2023-01-30T14:32:55.068Z,8.80
2023-01-30T14:33:56.890Z,8.80
2023-01-30T14:35:07.794Z,8.80
2023-01-30T14:36:15.853Z,8.80
2023-01-30T14:37:27.340Z,8.80
2023-01-30T14:38:37.252Z,8.80
2023-01-30T14:39:41.172Z,8.80
2023-01-30T14:41:09.656Z,8.80
2023-01-30T14:42:22.248Z,8.70
2023-01-30T14:43:42.589Z,8.70
2023-01-30T14:45:05.513Z,8.70
2023-01-30T14:46:32.311Z,8.80
2023-01-30T14:47:46.395Z,8.80
2023-01-30T14:48:54.422Z,8.80
2023-01-30T14:49:57.924Z,8.70
2023-01-30T14:51:25.196Z,8.70
2023-01-30T14:52:43.357Z,8.70
2023-01-30T14:54:12.015Z,8.70
2023-01-30T14:55:24.359Z,8.70
2023-01-30T14:56:54.750Z,8.70
2023-01-30T14:58:00.263Z,8.70
2023-01-30T14:59:05.178Z,8.70
2023-01-30T15:00:18.767Z,8.70
2023-01-30T15:01:20.931Z,8.60
2023-01-30T15:02:26.370Z,8.70
2023-01-30T15:03:29.284Z,8.70
2023-01-30T15:04:45.414Z,8.70
2023-01-30T15:05:48.288Z,8.70
2023-01-30T15:06:50.411Z,8.60
2023-01-30T15:08:04.079Z,8.60
2023-01-30T15:09:09.290Z,8.70
2023-01-30T15:10:45.533Z,8.60
2023-01-30T15:11:57.813Z,8.60